Flag for United Kingdom

Past Weather in 52°30'30.1"N, 1°50'22.4"W, United Kingdom — Yesterday and Last 2 Weeks

Currently: 55 °F. Partly sunny. (Weather station: Birmingham / Airport, United Kingdom). See more current weather

Past Weather in 52°30'30.1"N, 1°50'22.4"W — Graph

°F

52°30'30.1"N, 1°50'22.4"W Temperature Yesterday

Maximum temperature yesterday: 57 °F (at 11:50 am)
Minimum temperature yesterday: 46 °F (at 1:50 am)
Average temperature yesterday: 52 °F

High & Low Weather Summary for the Past Weeks

 TemperatureHumidityPressure
High64 °F (May 9, 1:20 pm)100% (May 8, 7:20 am)30.01 "Hg (May 8, 7:20 am)
Low37 °F (May 5, 5:50 am)28% (May 7, 7:20 pm)29.21 "Hg (May 4, 12:50 am)
Average49 °F77%29.64 "Hg
* Reported May 3 3:20 pm — May 18 3:20 pm, 52°30'30.1"N, 1°50'22.4"W. Weather by CustomWeather, © 2021

Note: Actual official high and low records may vary slightly from our data, if they occured in-between our weather recording intervals... More about our weather records

52°30'30.1"N, 1°50'22.4"W Weather History for the Previous 24 Hours

Scroll right to see more
 ConditionsComfort  
Time TempWeatherWind HumidityBarometerVisibility
3:20 pm
Tue, May 18
55 °FScattered clouds.5 mph72%29.89 "HgN/A
2:50 pm52 °FScattered clouds.2 mph82%29.92 "HgN/A
2:20 pm50 °FSprinkles. Scattered clouds.3 mph88%29.92 "HgN/A
1:50 pm48 °FSprinkles. Broken clouds.6 mph94%29.92 "HgN/A
1:20 pm52 °FStrong thunderstorms. Broken clouds.17 mph72%29.92 "HgN/A
12:50 pm57 °FScattered showers. Partly sunny.2 mph63%29.89 "HgN/A
12:20 pm52 °FSprinkles. Scattered clouds.12 mph77%29.89 "HgN/A
11:50 am57 °FScattered clouds.5 mph51%29.89 "HgN/A
11:20 am57 °FBroken clouds.5 mph51%29.89 "HgN/A
10:50 am55 °FScattered clouds.8 mph55%29.89 "HgN/A
10:20 am55 °FScattered clouds.7 mph59%29.89 "HgN/A
9:50 am55 °FScattered clouds.7 mph63%29.89 "HgN/A
8:50 am54 °FPassing clouds.8 mph72%29.89 "HgN/A
8:20 am50 °FPassing clouds.6 mph82%29.89 "HgN/A
7:50 am52 °FPassing clouds.6 mph77%29.89 "HgN/A
7:20 am48 °FPassing clouds.6 mph82%29.89 "HgN/A
6:50 am48 °FPassing clouds.6 mph82%29.86 "HgN/A
6:20 am48 °FPassing clouds.5 mph82%29.86 "HgN/A
5:50 am46 °FPassing clouds.6 mph87%29.86 "HgN/A
5:20 am48 °FPassing clouds.5 mph82%29.86 "HgN/A
4:50 am46 °FPassing clouds.5 mph87%29.86 "HgN/A
3:50 am46 °FPassing clouds.5 mph82%29.86 "HgN/A
3:20 am46 °FClear.5 mph82%29.86 "Hg10 mi
2:50 am46 °FPassing clouds.6 mph82%29.86 "HgN/A
2:20 am46 °FPassing clouds.3 mph82%29.86 "HgN/A
1:50 am46 °FCool.2 mph82%29.86 "HgN/A
1:20 am46 °FCool.6 mph82%29.86 "HgN/A
12:50 am48 °FCool.5 mph76%29.86 "HgN/A
12:20 am48 °FCool.5 mph76%29.83 "HgN/A
11:50 pm
Mon, May 17
48 °FClear.6 mph76%29.83 "Hg10 mi
11:20 pm48 °FClear.6 mph71%29.83 "Hg10 mi
10:50 pm50 °FClear.3 mph67%29.83 "Hg10 mi
10:20 pm50 °FClear.3 mph67%29.83 "Hg10 mi
9:50 pm52 °FClear.3 mph62%29.83 "Hg10 mi
9:20 pm52 °FClear.6 mph62%29.80 "Hg10 mi
8:50 pm52 °FSunny.7 mph62%29.80 "Hg10 mi
8:20 pm55 °FPassing clouds.9 mph55%29.80 "HgN/A
7:50 pm55 °FScattered clouds.13 mph59%29.77 "HgN/A
7:20 pm55 °FPartly sunny.7 mph67%29.77 "HgN/A
6:50 pm55 °FPartly sunny.10 mph67%29.77 "HgN/A
6:20 pm55 °FBroken clouds.9 mph72%29.77 "HgN/A
5:50 pm54 °FBroken clouds.2 mph77%29.77 "HgN/A
5:20 pm54 °FScattered showers. Partly sunny.5 mph82%29.74 "HgN/A
4:50 pm54 °FScattered showers. Partly sunny.8 mph77%29.74 "HgN/A
4:20 pm55 °FThunderstorms. Broken clouds.17 mph72%29.74 "HgN/A
Weather by CustomWeather, © 2021

See weather overview